Time;durP1;ratioP1;P1;durP2;ratioP2;P2;SDS_P1;SDS_P2;PMS_P1;PMS_P2;Temp;Humidity;BMP_temperature;BMP_pressure;BME280_temperature;BME280_humidity;BME280_pressure;Samples;Min_cycle;Max_cycle;Signal;HPM_P1;HPM_P2
2021/03/13 00:00:41;;;;;;;0.80;0.60;;;7.00;94.30;;;;;;4986913;28;20227;-82
2021/03/13 00:03:07;;;;;;;1.27;0.70;;;7.10;94.30;;;;;;4988161;28;20206;-82
2021/03/13 00:05:40;;;;;;;1.43;0.80;;;7.10;94.20;;;;;;4990507;28;20463;-81
2021/03/13 00:08:06;;;;;;;0.60;0.57;;;7.00;94.30;;;;;;4990781;28;20932;-81
2021/03/13 00:10:33;;;;;;;2.15;0.60;;;6.90;94.90;;;;;;4991237;28;20198;-81
2021/03/13 00:12:59;;;;;;;3.13;1.17;;;6.80;94.90;;;;;;4990641;28;20179;-81
2021/03/13 00:15:26;;;;;;;3.95;1.00;;;6.70;95.30;;;;;;4991400;28;20171;-82
2021/03/13 00:17:54;;;;;;;1.10;0.90;;;6.70;95.80;;;;;;4991701;28;20176;-81
2021/03/13 00:20:23;;;;;;;2.03;0.80;;;6.70;95.90;;;;;;4992021;28;20299;-81
2021/03/13 00:22:50;;;;;;;0.70;0.65;;;6.80;95.60;;;;;;4991134;28;20196;-82
2021/03/13 00:25:16;;;;;;;0.50;0.50;;;6.80;95.70;;;;;;4990202;28;20176;-82
2021/03/13 00:27:46;;;;;;;2.53;1.08;;;6.90;95.80;;;;;;4990720;28;20175;-82
2021/03/13 00:30:44;;;;;;;1.23;1.00;;;6.90;95.90;;;;;;4989976;28;20180;-81
2021/03/13 00:33:15;;;;;;;0.95;0.60;;;7.00;96.20;;;;;;4990082;28;20211;-82
2021/03/13 00:35:43;;;;;;;3.20;1.23;;;7.00;96.80;;;;;;4990250;28;20164;-82
2021/03/13 00:38:09;;;;;;;2.05;1.00;;;7.10;97.10;;;;;;4990197;28;20172;-82
2021/03/13 00:40:37;;;;;;;1.52;0.88;;;7.10;97.00;;;;;;4991286;28;20202;-82
2021/03/13 00:43:05;;;;;;;2.08;1.15;;;7.10;97.00;;;;;;4989247;28;20227;-81
2021/03/13 00:45:31;;;;;;;1.65;0.93;;;7.10;97.00;;;;;;4989465;28;20176;-81
2021/03/13 00:47:59;;;;;;;4.55;1.40;;;7.00;97.20;;;;;;4989388;28;20271;-81
2021/03/13 00:50:27;;;;;;;1.85;1.13;;;7.00;97.50;;;;;;4989121;28;20600;-81
2021/03/13 00:52:53;;;;;;;3.00;1.00;;;7.00;97.70;;;;;;4989308;28;20183;-81
2021/03/13 00:55:19;;;;;;;5.93;1.50;;;6.90;97.60;;;;;;4989333;28;20536;-81
2021/03/13 00:57:45;;;;;;;5.90;1.43;;;6.90;97.50;;;;;;4988246;28;20423;-81
2021/03/13 01:00:14;;;;;;;1.60;1.07;;;6.80;97.70;;;;;;4989561;28;20912;-81
2021/03/13 01:02:40;;;;;;;2.50;0.98;;;6.80;98.10;;;;;;4989270;28;20459;-81
2021/03/13 01:05:07;;;;;;;2.03;1.00;;;6.80;98.10;;;;;;4990326;28;20194;-82
2021/03/13 01:07:34;;;;;;;0.55;0.52;;;6.80;97.30;;;;;;4989559;28;20423;-82
2021/03/13 01:10:01;;;;;;;1.65;0.85;;;6.80;97.00;;;;;;4988749;28;20180;-81
2021/03/13 01:12:27;;;;;;;1.30;0.70;;;6.90;96.70;;;;;;4988150;28;20187;-81
2021/03/13 01:14:53;;;;;;;1.67;0.80;;;6.90;95.30;;;;;;4986984;28;20179;-81
2021/03/13 01:17:19;;;;;;;8.90;0.67;;;6.90;95.70;;;;;;4987082;28;20915;-81
2021/03/13 01:19:45;;;;;;;2.80;0.60;;;6.80;96.10;;;;;;4979222;28;20547;-81
2021/03/13 01:22:10;;;;;;;1.63;0.60;;;6.70;96.50;;;;;;4976294;28;20467;-81
2021/03/13 01:24:40;;;;;;;1.07;0.53;;;6.70;95.60;;;;;;4977931;28;20223;-81
2021/03/13 01:27:08;;;;;;;0.50;0.50;;;6.70;96.30;;;;;;4976585;28;20911;-81
2021/03/13 01:29:34;;;;;;;0.90;0.80;;;6.70;97.10;;;;;;4976402;28;20195;-81
2021/03/13 01:32:03;;;;;;;2.92;0.90;;;6.80;97.10;;;;;;4976778;28;20199;-81
2021/03/13 01:34:30;;;;;;;1.67;0.60;;;6.80;97.10;;;;;;4976546;28;20172;-82
2021/03/13 01:36:56;;;;;;;1.23;0.60;;;6.80;97.20;;;;;;4977173;28;20323;-82
2021/03/13 01:39:22;;;;;;;0.50;0.50;;;6.70;97.20;;;;;;4976923;28;20191;-81
2021/03/13 01:41:48;;;;;;;0.70;0.60;;;6.70;97.40;;;;;;4976366;28;20207;-81
2021/03/13 01:44:13;;;;;;;1.33;0.63;;;6.60;97.60;;;;;;4976267;28;20178;-81
2021/03/13 01:46:39;;;;;;;3.90;0.70;;;6.60;97.40;;;;;;4976012;28;20194;-82
2021/03/13 01:49:06;;;;;;;1.33;0.63;;;6.60;97.40;;;;;;4975977;28;20534;-81
2021/03/13 01:51:32;;;;;;;1.85;0.60;;;6.60;97.80;;;;;;4976076;28;20458;-82
2021/03/13 01:53:58;;;;;;;1.17;0.70;;;6.60;97.90;;;;;;4976456;28;20520;-81
2021/03/13 01:56:24;;;;;;;0.90;0.60;;;6.60;97.70;;;;;;4976040;28;20469;-81
2021/03/13 01:58:50;;;;;;;5.40;0.73;;;6.60;97.90;;;;;;4976072;28;20168;-82
2021/03/13 02:01:16;;;;;;;1.70;0.90;;;6.60;97.90;;;;;;4975918;28;20207;-81
2021/03/13 02:03:42;;;;;;;1.10;0.73;;;6.50;98.10;;;;;;4975716;28;20207;-82
2021/03/13 02:06:08;;;;;;;0.90;0.60;;;6.50;98.40;;;;;;4975808;28;20414;-81
2021/03/13 02:09:05;;;;;;;2.03;1.53;;;6.60;98.50;;;;;;4975847;28;20176;-82
2021/03/13 02:11:53;;;;;;;6.80;2.00;;;6.50;98.40;;;;;;4971151;28;20462;-82
2021/03/13 02:14:57;;;;;;;2.13;1.10;;;6.50;98.60;;;;;;4976133;28;20184;-83
2021/03/13 02:17:46;;;;;;;3.33;0.93;;;6.40;99.00;;;;;;5008120;28;20263;-81
2021/03/13 02:20:53;;;;;;;1.30;1.05;;;6.40;98.80;;;;;;4975645;28;20171;-81
2021/03/13 02:23:20;;;;;;;1.42;1.13;;;6.40;98.80;;;;;;4975576;28;20485;-82
2021/03/13 02:26:13;;;;;;;2.05;1.17;;;6.30;98.90;;;;;;4975696;28;20632;-82
2021/03/13 02:29:04;;;;;;;1.42;1.05;;;6.30;99.00;;;;;;4975631;28;20176;-82
2021/03/13 02:31:30;;;;;;;1.10;0.90;;;6.30;98.90;;;;;;5007774;28;20184;-82
2021/03/13 02:34:00;;;;;;;1.67;1.17;;;6.30;99.10;;;;;;4975790;28;20285;-81
2021/03/13 02:36:28;;;;;;;1.00;0.80;;;6.30;99.10;;;;;;4975442;28;20172;-82
2021/03/13 02:39:00;;;;;;;3.53;0.80;;;6.30;99.10;;;;;;4975115;28;20172;-82
2021/03/13 02:41:35;;;;;;;0.95;0.85;;;6.40;98.80;;;;;;4976449;28;20247;-83
2021/03/13 02:44:04;;;;;;;3.50;1.10;;;6.30;98.70;;;;;;4975268;28;20199;-82
2021/03/13 02:46:34;;;;;;;1.40;0.88;;;6.40;98.50;;;;;;4975166;28;20659;-82
2021/03/13 02:49:01;;;;;;;4.32;0.95;;;6.40;98.40;;;;;;4974899;28;20611;-83
2021/03/13 02:51:30;;;;;;;1.83;0.80;;;6.50;98.40;;;;;;4989125;28;20209;-82
2021/03/13 02:53:57;;;;;;;2.95;1.45;;;6.40;98.30;;;;;;4986436;28;20638;-82
2021/03/13 02:56:24;;;;;;;2.67;1.00;;;6.50;97.90;;;;;;4982643;28;20226;-82
2021/03/13 02:58:54;;;;;;;4.13;1.30;;;6.40;97.60;;;;;;4975247;28;20807;-81
2021/03/13 03:01:21;;;;;;;2.05;1.25;;;6.40;97.50;;;;;;4989190;28;20195;-82
2021/03/13 03:03:49;;;;;;;4.53;1.30;;;6.50;97.60;;;;;;4992108;28;20186;-81
2021/03/13 03:06:20;;;;;;;3.88;1.38;;;6.50;97.30;;;;;;4989463;28;20207;-82
2021/03/13 03:08:48;;;;;;;5.55;1.00;;;6.50;97.50;;;;;;4959951;28;20183;-82
2021/03/13 03:11:23;;;;;;;4.35;1.45;;;6.50;97.30;;;;;;4979554;28;20202;-81
2021/03/13 03:13:51;;;;;;;1.67;1.02;;;6.50;97.10;;;;;;4984391;28;20170;-80
2021/03/13 03:16:19;;;;;;;8.52;1.60;;;6.50;96.90;;;;;;4983920;28;20179;-80
2021/03/13 03:18:45;;;;;;;3.35;1.30;;;6.50;96.60;;;;;;4985128;28;20172;-80
2021/03/13 03:21:11;;;;;;;10.98;1.10;;;6.50;96.30;;;;;;4986235;28;20183;-81
2021/03/13 03:23:38;;;;;;;8.85;1.52;;;6.60;95.80;;;;;;4986562;28;20213;-79
2021/03/13 03:26:05;;;;;;;2.95;1.63;;;6.60;95.90;;;;;;4978267;28;20178;-80
2021/03/13 03:28:31;;;;;;;8.73;1.40;;;6.60;95.80;;;;;;4978670;28;20178;-80
2021/03/13 03:30:57;;;;;;;3.33;1.17;;;6.60;95.40;;;;;;4977985;28;20195;-80
2021/03/13 03:33:24;;;;;;;2.45;1.13;;;6.60;95.40;;;;;;4978047;28;20183;-80
2021/03/13 03:35:50;;;;;;;4.65;1.20;;;6.60;95.70;;;;;;4978412;28;20724;-80
2021/03/13 03:38:17;;;;;;;2.53;0.80;;;6.70;95.20;;;;;;4977691;28;20251;-80
2021/03/13 03:40:44;;;;;;;2.13;1.02;;;6.70;95.00;;;;;;4979014;28;20434;-80
2021/03/13 03:43:12;;;;;;;4.47;1.85;;;6.70;95.20;;;;;;4978724;28;20592;-81
2021/03/13 03:45:42;;;;;;;5.28;1.13;;;6.80;95.10;;;;;;4979329;28;20167;-80
2021/03/13 03:48:13;;;;;;;7.43;1.30;;;6.80;94.70;;;;;;4978679;28;20651;-80
2021/03/13 03:50:42;;;;;;;3.50;1.33;;;6.90;94.80;;;;;;4978612;28;20242;-80
2021/03/13 03:53:16;;;;;;;3.20;1.25;;;6.90;94.70;;;;;;4979027;28;20234;-80
2021/03/13 03:55:46;;;;;;;2.22;0.93;;;7.00;94.10;;;;;;4979444;28;20170;-80
2021/03/13 03:58:16;;;;;;;1.75;0.80;;;7.00;93.90;;;;;;4978940;28;20182;-80
2021/03/13 04:00:44;;;;;;;4.93;1.45;;;7.00;93.80;;;;;;4978747;28;20607;-81
2021/03/13 04:03:12;;;;;;;3.20;1.38;;;7.10;93.70;;;;;;4979060;28;20268;-81
2021/03/13 04:05:41;;;;;;;6.10;1.05;;;7.10;93.60;;;;;;4978388;28;20675;-80
2021/03/13 04:08:10;;;;;;;2.10;0.95;;;7.10;93.00;;;;;;4980909;28;20182;-81
2021/03/13 04:10:36;;;;;;;4.72;1.30;;;7.20;93.00;;;;;;4982285;28;20195;-81
2021/03/13 04:13:03;;;;;;;5.00;1.00;;;7.20;93.10;;;;;;4981582;28;20270;-81
2021/03/13 04:15:30;;;;;;;10.15;1.20;;;7.20;93.40;;;;;;4980852;28;20656;-81
2021/03/13 04:17:56;;;;;;;1.60;1.10;;;7.20;93.00;;;;;;4982416;28;20175;-81
2021/03/13 04:20:22;;;;;;;2.55;1.25;;;7.30;92.80;;;;;;4981043;28;20286;-81
2021/03/13 04:22:49;;;;;;;2.17;1.10;;;7.30;93.00;;;;;;4980532;28;20655;-81
2021/03/13 04:25:16;;;;;;;4.50;2.22;;;7.30;93.10;;;;;;4980189;28;20414;-81
2021/03/13 04:27:45;;;;;;;1.60;1.13;;;7.30;92.80;;;;;;4980389;28;20175;-81
2021/03/13 04:30:17;;;;;;;2.90;1.15;;;7.30;92.60;;;;;;4981928;28;20175;-81
2021/03/13 04:32:47;;;;;;;3.38;1.25;;;7.40;92.20;;;;;;4980967;28;20187;-81
2021/03/13 04:35:14;;;;;;;3.72;1.10;;;7.40;91.70;;;;;;4980613;28;20185;-81
2021/03/13 04:37:40;;;;;;;4.35;0.85;;;7.40;92.00;;;;;;4980227;28;20179;-81
2021/03/13 04:40:10;;;;;;;1.85;1.08;;;7.40;91.70;;;;;;4980281;28;20199;-81
2021/03/13 04:42:39;;;;;;;3.67;0.90;;;7.40;91.70;;;;;;4979573;28;20237;-81
2021/03/13 04:45:08;;;;;;;5.07;1.33;;;7.50;92.10;;;;;;4980058;28;20218;-81
2021/03/13 04:47:36;;;;;;;2.38;1.38;;;7.50;92.30;;;;;;4980622;28;20183;-81
2021/03/13 04:50:03;;;;;;;2.85;1.05;;;7.50;92.80;;;;;;4980241;28;20175;-81
2021/03/13 04:52:28;;;;;;;3.13;1.02;;;7.50;92.10;;;;;;4982694;28;20179;-81
2021/03/13 04:54:54;;;;;;;4.43;1.50;;;7.60;91.80;;;;;;4983999;28;20322;-81
2021/03/13 04:57:20;;;;;;;6.00;1.20;;;7.50;91.70;;;;;;4982648;28;20418;-81
2021/03/13 04:59:46;;;;;;;2.47;1.20;;;7.50;91.80;;;;;;4981818;28;20183;-81
2021/03/13 05:02:11;;;;;;;11.87;1.40;;;7.50;91.60;;;;;;4983446;28;20466;-81
2021/03/13 05:04:37;;;;;;;1.87;0.90;;;7.50;91.30;;;;;;4983663;28;20438;-81
2021/03/13 05:07:03;;;;;;;5.23;0.80;;;7.60;91.50;;;;;;4983097;28;20179;-81
2021/03/13 05:09:29;;;;;;;2.70;1.20;;;7.60;91.00;;;;;;4982819;28;20182;-81
2021/03/13 05:11:54;;;;;;;2.17;0.80;;;7.60;91.30;;;;;;4982791;28;20533;-81
2021/03/13 05:14:20;;;;;;;1.50;1.13;;;7.60;91.30;;;;;;4982012;28;20182;-80
2021/03/13 05:16:46;;;;;;;5.87;1.00;;;7.50;91.70;;;;;;4980547;28;20182;-81
2021/03/13 05:19:11;;;;;;;6.20;1.90;;;7.60;91.00;;;;;;4980330;28;20187;-80
2021/03/13 05:21:37;;;;;;;2.93;1.37;;;7.60;91.00;;;;;;4979774;28;20199;-80
2021/03/13 05:24:03;;;;;;;3.80;1.40;;;7.60;91.20;;;;;;4980147;28;20266;-81
2021/03/13 05:26:29;;;;;;;6.32;1.15;;;7.60;91.10;;;;;;4980999;28;20182;-80
2021/03/13 05:28:55;;;;;;;1.60;0.87;;;7.60;90.90;;;;;;4980714;28;20541;-83
2021/03/13 05:31:24;;;;;;;1.57;1.00;;;7.70;90.80;;;;;;4981535;28;20223;-81
2021/03/13 05:33:50;;;;;;;7.20;1.10;;;7.70;90.50;;;;;;4975209;28;20179;-81
2021/03/13 05:36:16;;;;;;;3.00;1.20;;;7.70;90.10;;;;;;4958213;28;20168;-81
2021/03/13 05:38:42;;;;;;;1.17;0.60;;;7.70;90.40;;;;;;4958795;28;20208;-80
2021/03/13 05:41:09;;;;;;;3.60;0.87;;;7.70;90.20;;;;;;4957473;28;20491;-80
2021/03/13 05:43:35;;;;;;;1.70;0.88;;;7.70;90.30;;;;;;4956089;28;20448;-80
2021/03/13 05:46:02;;;;;;;2.38;0.90;;;7.70;90.20;;;;;;4957518;29;20180;-81
2021/03/13 05:48:30;;;;;;;2.58;1.15;;;7.80;89.60;;;;;;4958447;29;20173;-81
2021/03/13 05:50:59;;;;;;;1.98;0.88;;;7.80;89.40;;;;;;4955664;28;20275;-81
2021/03/13 05:53:25;;;;;;;4.00;1.33;;;7.80;89.20;;;;;;4958168;29;20184;-81
2021/03/13 05:55:54;;;;;;;2.83;0.90;;;7.90;89.20;;;;;;4957917;28;20192;-81
2021/03/13 05:58:23;;;;;;;4.60;0.88;;;7.90;88.90;;;;;;4957880;28;20187;-81
2021/03/13 06:00:50;;;;;;;3.50;0.70;;;7.90;88.80;;;;;;4957890;28;20665;-80
2021/03/13 06:03:16;;;;;;;2.08;1.02;;;7.90;88.50;;;;;;4959110;28;20692;-81
2021/03/13 06:05:48;;;;;;;2.88;0.93;;;7.90;88.40;;;;;;4958748;29;20172;-80
2021/03/13 06:08:16;;;;;;;1.50;1.20;;;8.00;88.30;;;;;;4957052;28;20303;-81
2021/03/13 06:10:42;;;;;;;6.10;1.17;;;8.00;88.10;;;;;;4955496;29;20203;-82
2021/03/13 06:13:09;;;;;;;3.50;1.00;;;8.10;87.60;;;;;;4955691;28;20187;-82
2021/03/13 06:15:36;;;;;;;8.93;1.02;;;8.10;87.30;;;;;;4955860;29;20203;-82
2021/03/13 06:18:03;;;;;;;6.18;1.48;;;8.20;86.30;;;;;;4955936;29;20187;-82
2021/03/13 06:20:31;;;;;;;5.55;1.17;;;8.20;86.30;;;;;;4955280;29;20669;-83
2021/03/13 06:23:00;;;;;;;1.20;0.80;;;8.20;86.20;;;;;;4955098;29;20628;-83
2021/03/13 06:25:27;;;;;;;4.60;1.00;;;8.20;86.20;;;;;;4955195;28;20176;-81
2021/03/13 06:28:14;;;;;;;2.88;1.30;;;8.20;85.60;;;;;;4957439;29;20192;-81
2021/03/13 06:31:03;;;;;;;2.45;0.85;;;8.30;85.50;;;;;;4964746;29;20200;-81
2021/03/13 06:33:31;;;;;;;2.58;1.30;;;8.40;84.80;;;;;;4965776;29;20184;-81
2021/03/13 06:36:00;;;;;;;3.65;1.83;;;8.40;84.20;;;;;;4966071;29;20183;-81
2021/03/13 06:38:28;;;;;;;1.65;0.90;;;8.50;83.90;;;;;;4966322;28;20176;-81
2021/03/13 06:40:56;;;;;;;2.72;1.10;;;8.50;83.40;;;;;;4966752;28;20287;-81
2021/03/13 06:43:22;;;;;;;4.97;1.70;;;8.50;83.30;;;;;;4966313;29;20231;-81
2021/03/13 06:46:03;;;;;;;3.87;1.47;;;8.60;82.80;;;;;;4965470;29;20236;-81
2021/03/13 06:48:38;;;;;;;1.42;0.63;;;8.60;83.30;;;;;;4965978;28;20173;-81
2021/03/13 06:51:20;;;;;;;4.75;1.20;;;8.70;82.30;;;;;;4965467;29;20211;-81
2021/03/13 06:54:04;;;;;;;6.88;1.02;;;8.70;81.90;;;;;;4965590;28;20191;-81
2021/03/13 06:56:32;;;;;;;5.28;1.50;;;8.80;81.40;;;;;;4965218;29;20172;-81
2021/03/13 06:58:59;;;;;;;2.00;1.00;;;8.90;80.20;;;;;;4965381;28;20268;-81
2021/03/13 07:01:28;;;;;;;3.47;1.15;;;9.00;81.30;;;;;;4964714;29;20215;-81
2021/03/13 07:03:54;;;;;;;2.67;1.30;;;9.10;79.80;;;;;;4964911;29;20255;-81
2021/03/13 07:06:20;;;;;;;5.22;1.30;;;9.10;79.40;;;;;;4964057;29;20173;-81
2021/03/13 07:08:47;;;;;;;4.10;0.93;;;9.10;79.80;;;;;;4964047;29;20172;-81
2021/03/13 07:11:24;;;;;;;7.80;1.30;;;9.10;78.80;;;;;;4962358;29;20840;-81
2021/03/13 07:13:55;;;;;;;4.03;1.20;;;9.10;78.70;;;;;;4962266;28;20541;-81
2021/03/13 07:16:40;;;;;;;1.55;0.90;;;9.20;79.10;;;;;;4962974;28;20198;-81
2021/03/13 07:19:11;;;;;;;3.80;1.05;;;9.20;79.10;;;;;;4964401;29;20260;-81
2021/03/13 07:21:42;;;;;;;10.43;1.10;;;9.30;78.90;;;;;;4963741;29;20219;-81
2021/03/13 07:24:09;;;;;;;9.70;1.90;;;9.30;78.10;;;;;;4964243;29;20196;-81
2021/03/13 07:26:43;;;;;;;5.10;0.95;;;9.40;76.90;;;;;;4964308;29;20180;-81
2021/03/13 07:29:11;;;;;;;5.38;1.20;;;9.40;76.70;;;;;;4964326;29;20212;-81
2021/03/13 07:31:42;;;;;;;3.00;1.20;;;9.50;77.10;;;;;;4963687;29;20196;-81
2021/03/13 07:34:19;;;;;;;2.65;0.90;;;9.50;77.30;;;;;;4964251;29;20179;-81
2021/03/13 07:36:51;;;;;;;6.20;1.10;;;9.60;75.60;;;;;;4964828;29;20610;-81
2021/03/13 07:39:22;;;;;;;2.05;1.10;;;9.60;76.00;;;;;;4961797;29;20516;-82
2021/03/13 07:42:08;;;;;;;1.02;0.95;;;9.60;76.40;;;;;;4954459;29;20189;-82
2021/03/13 07:44:35;;;;;;;2.50;1.13;;;9.70;75.60;;;;;;4956339;29;20172;-84
2021/03/13 07:47:02;;;;;;;4.25;1.15;;;9.80;74.20;;;;;;4957087;29;20169;-84
2021/03/13 07:49:30;;;;;;;1.63;0.98;;;9.90;73.10;;;;;;4956866;29;20280;-84
2021/03/13 07:52:02;;;;;;;7.72;1.45;;;10.00;74.80;;;;;;4957737;29;20306;-83
2021/03/13 07:54:31;;;;;;;5.15;2.28;;;10.10;74.10;;;;;;4957051;29;20169;-84
2021/03/13 07:56:59;;;;;;;3.88;1.10;;;10.10;73.70;;;;;;4957034;29;20472;-84
2021/03/13 07:59:44;;;;;;;3.15;0.98;;;10.30;71.70;;;;;;4959750;28;20188;-84
2021/03/13 08:02:29;;;;;;;2.15;0.93;;;10.40;72.60;;;;;;4957462;28;20200;-82
2021/03/13 08:05:07;;;;;;;3.53;1.10;;;10.50;72.40;;;;;;4956761;28;20176;-84
2021/03/13 08:07:55;;;;;;;2.92;0.60;;;10.60;71.00;;;;;;4949270;29;20196;-85
2021/03/13 08:10:47;;;;;;;3.35;0.88;;;10.60;68.90;;;;;;4955756;28;20204;-85
2021/03/13 08:13:28;;;;;;;1.25;0.93;;;10.60;70.60;;;;;;4957048;28;20187;-85
2021/03/13 08:16:08;;;;;;;4.53;0.80;;;10.50;69.20;;;;;;4959545;28;20261;-84
2021/03/13 08:19:25;;;;;;;1.35;0.70;;;10.50;70.20;;;;;;4959366;28;20188;-84
2021/03/13 08:22:08;;;;;;;0.70;0.70;;;10.50;69.90;;;;;;4938102;29;20208;-85
2021/03/13 08:24:46;;;;;;;2.60;1.00;;;10.60;69.20;;;;;;4954609;28;20570;-84
2021/03/13 08:27:13;;;;;;;3.85;1.20;;;10.60;68.50;;;;;;4958006;28;20693;-84
2021/03/13 08:29:56;;;;;;;2.05;0.93;;;10.60;69.10;;;;;;4957760;28;20259;-85
2021/03/13 08:32:56;;;;;;;2.85;0.80;;;10.50;68.40;;;;;;4957541;28;20175;-85
2021/03/13 08:35:39;;;;;;;0.90;0.60;;;10.50;68.90;;;;;;4958286;28;20172;-84
2021/03/13 08:38:05;;;;;;;2.17;0.80;;;10.60;68.10;;;;;;4960349;28;20196;-81
2021/03/13 08:40:32;;;;;;;3.58;0.68;;;10.60;67.70;;;;;;4961842;28;20264;-83
2021/03/13 08:42:59;;;;;;;3.20;0.85;;;10.60;66.70;;;;;;4959405;28;20200;-84
2021/03/13 08:45:33;;;;;;;2.42;0.82;;;10.60;65.50;;;;;;4957542;29;20176;-85
2021/03/13 08:48:01;;;;;;;2.95;0.90;;;10.70;64.80;;;;;;4957348;29;20227;-84
2021/03/13 08:50:45;;;;;;;1.30;0.82;;;10.80;65.90;;;;;;4945382;28;20208;-86
2021/03/13 08:53:37;;;;;;;1.73;0.73;;;10.90;64.60;;;;;;4953102;29;20177;-85
2021/03/13 08:56:04;;;;;;;3.35;0.93;;;11.10;63.40;;;;;;4954837;29;20191;-86
2021/03/13 08:58:44;;;;;;;4.18;1.88;;;11.30;63.70;;;;;;4956740;29;20583;-85
2021/03/13 09:01:21;;;;;;;4.00;1.13;;;11.40;62.70;;;;;;4956748;29;20259;-86
2021/03/13 09:03:49;;;;;;;0.73;0.70;;;11.50;61.70;;;;;;4954654;29;20196;-85
2021/03/13 09:06:16;;;;;;;2.90;1.05;;;11.50;62.30;;;;;;4956733;28;20216;-85
2021/03/13 09:08:42;;;;;;;6.05;1.10;;;11.60;60.30;;;;;;4951170;29;20655;-85
2021/03/13 09:11:07;;;;;;;2.80;0.90;;;11.70;60.30;;;;;;4955993;28;20271;-85
2021/03/13 09:13:33;;;;;;;2.23;0.97;;;11.80;59.60;;;;;;4956527;29;20427;-85
2021/03/13 09:15:59;;;;;;;2.10;0.90;;;11.80;59.40;;;;;;4955718;28;20802;-88
2021/03/13 09:18:25;;;;;;;1.00;0.90;;;11.80;58.50;;;;;;4956556;28;20420;-85
2021/03/13 09:20:51;;;;;;;2.43;0.73;;;11.80;60.20;;;;;;4956867;28;20232;-83
2021/03/13 09:23:16;;;;;;;2.00;0.70;;;11.90;59.40;;;;;;4959563;28;20460;-84
2021/03/13 09:25:42;;;;;;;2.77;0.87;;;11.90;58.80;;;;;;4960048;28;20604;-84
2021/03/13 09:28:08;;;;;;;2.13;0.60;;;12.00;58.80;;;;;;4959452;28;20227;-83
2021/03/13 09:30:35;;;;;;;2.78;0.90;;;12.10;58.10;;;;;;4959305;28;20440;-83
2021/03/13 09:33:01;;;;;;;0.90;0.70;;;12.10;59.20;;;;;;4959452;29;20176;-83
2021/03/13 09:35:28;;;;;;;2.20;0.97;;;12.10;57.70;;;;;;4959962;28;20183;-83
2021/03/13 09:37:54;;;;;;;1.17;0.60;;;12.20;58.80;;;;;;4959224;28;20511;-83
2021/03/13 09:40:23;;;;;;;0.95;0.70;;;12.20;57.20;;;;;;4959211;29;20200;-83
2021/03/13 09:42:49;;;;;;;1.60;1.00;;;12.30;57.90;;;;;;4958814;28;20681;-83
2021/03/13 09:45:18;;;;;;;4.43;1.08;;;12.30;57.70;;;;;;4959249;28;20179;-83
2021/03/13 09:47:55;;;;;;;2.13;1.00;;;12.40;58.00;;;;;;4959247;28;20176;-83
2021/03/13 09:50:28;;;;;;;2.00;0.88;;;12.50;59.40;;;;;;4959704;28;20565;-83
2021/03/13 09:52:54;;;;;;;3.22;0.70;;;12.60;57.40;;;;;;4956391;28;20295;-85
2021/03/13 09:55:26;;;;;;;2.60;0.80;;;12.60;57.00;;;;;;4956395;28;20179;-83
2021/03/13 09:58:03;;;;;;;5.97;1.70;;;12.70;56.80;;;;;;4956477;29;20585;-83
2021/03/13 10:00:37;;;;;;;2.45;0.95;;;12.80;58.10;;;;;;4952647;29;20629;-87
2021/03/13 10:03:10;;;;;;;2.45;1.00;;;12.80;56.80;;;;;;4951983;29;20237;-86
2021/03/13 10:05:37;;;;;;;2.65;0.77;;;12.80;57.10;;;;;;4954358;28;20164;-86
2021/03/13 10:08:07;;;;;;;6.70;1.00;;;12.80;56.80;;;;;;4951494;28;20499;-85
2021/03/13 10:10:34;;;;;;;6.20;1.23;;;12.70;57.40;;;;;;4954419;28;20243;-85
2021/03/13 10:13:04;;;;;;;2.13;1.05;;;12.70;56.30;;;;;;4954081;29;20176;-85
2021/03/13 10:15:35;;;;;;;0.85;0.73;;;12.60;57.40;;;;;;4955351;28;20173;-85
2021/03/13 10:18:17;;;;;;;1.60;0.88;;;12.50;57.40;;;;;;4954932;28;20192;-84
2021/03/13 10:20:45;;;;;;;5.68;0.80;;;12.40;57.50;;;;;;4954997;28;20292;-84
2021/03/13 10:23:13;;;;;;;2.30;0.93;;;12.30;58.90;;;;;;4954864;28;20258;-84
2021/03/13 10:25:43;;;;;;;2.13;0.98;;;12.30;58.90;;;;;;4955010;28;20177;-80
2021/03/13 10:28:13;;;;;;;2.40;0.90;;;12.20;58.90;;;;;;4954962;28;20176;-84
2021/03/13 10:30:42;;;;;;;1.83;0.90;;;12.20;59.80;;;;;;4954818;28;20193;-83
2021/03/13 10:33:08;;;;;;;0.90;0.77;;;12.30;58.30;;;;;;4955115;28;20232;-85
2021/03/13 10:35:34;;;;;;;1.13;0.70;;;12.30;59.30;;;;;;4956779;28;20187;-83
2021/03/13 10:38:15;;;;;;;1.80;0.80;;;12.30;58.40;;;;;;4957128;28;20591;-84
2021/03/13 10:40:46;;;;;;;2.45;0.60;;;12.20;58.90;;;;;;4956607;28;20545;-83
2021/03/13 10:43:35;;;;;;;1.55;0.80;;;12.30;59.30;;;;;;4956233;28;20200;-84
2021/03/13 10:46:22;;;;;;;8.73;1.85;;;12.40;58.90;;;;;;4956382;28;20157;-83
2021/03/13 10:48:50;;;;;;;0.80;0.70;;;12.40;58.30;;;;;;4955742;28;20394;-83
2021/03/13 10:51:30;;;;;;;1.77;0.88;;;12.40;59.40;;;;;;4956142;28;20275;-82
2021/03/13 10:53:58;;;;;;;2.80;0.65;;;12.40;59.30;;;;;;4955813;28;20165;-82
2021/03/13 10:56:24;;;;;;;1.00;0.77;;;12.30;58.80;;;;;;4955818;28;20180;-83
2021/03/13 10:58:51;;;;;;;2.60;0.80;;;12.20;58.70;;;;;;4955913;28;20191;-82
2021/03/13 11:01:19;;;;;;;2.45;1.35;;;12.20;58.40;;;;;;4954705;28;20439;-83
2021/03/13 11:03:46;;;;;;;7.70;1.42;;;12.30;58.80;;;;;;4956506;28;20680;-86
2021/03/13 11:06:14;;;;;;;1.00;0.75;;;12.30;58.80;;;;;;4955235;28;20215;-83
2021/03/13 11:08:40;;;;;;;0.60;0.60;;;12.30;57.70;;;;;;4953918;28;20247;-84
2021/03/13 11:11:06;;;;;;;1.27;0.70;;;12.30;57.60;;;;;;4954362;28;20188;-83
2021/03/13 11:13:32;;;;;;;1.70;0.90;;;12.30;58.30;;;;;;4953981;28;20794;-83
2021/03/13 11:15:58;;;;;;;2.72;0.93;;;12.40;58.10;;;;;;4954370;28;20180;-83
2021/03/13 11:18:24;;;;;;;2.07;1.30;;;12.40;57.90;;;;;;4954435;29;20673;-83
2021/03/13 11:20:50;;;;;;;7.50;0.77;;;12.50;57.60;;;;;;4953804;28;20287;-83
2021/03/13 11:23:16;;;;;;;1.15;0.70;;;12.40;57.40;;;;;;4953846;29;20215;-83
2021/03/13 11:25:42;;;;;;;1.70;1.10;;;12.40;56.70;;;;;;4954194;29;20260;-83
2021/03/13 11:28:08;;;;;;;0.93;0.70;;;12.50;57.20;;;;;;4954034;29;20204;-83
2021/03/13 11:30:34;;;;;;;8.45;0.90;;;12.50;57.00;;;;;;4953707;28;20499;-83
2021/03/13 11:33:00;;;;;;;0.82;0.73;;;12.60;57.40;;;;;;4953604;29;20582;-84
2021/03/13 11:35:25;;;;;;;1.57;0.90;;;12.70;56.00;;;;;;4953969;29;20185;-83
2021/03/13 11:37:52;;;;;;;2.67;0.80;;;12.80;56.20;;;;;;4953898;29;20203;-84
2021/03/13 11:40:19;;;;;;;0.70;0.57;;;12.70;56.30;;;;;;4953634;28;20487;-83
2021/03/13 11:42:46;;;;;;;2.22;1.17;;;12.70;55.50;;;;;;4953342;29;20200;-83
2021/03/13 11:45:13;;;;;;;1.50;1.08;;;12.80;56.40;;;;;;4953522;29;20227;-82
2021/03/13 11:47:39;;;;;;;2.95;1.70;;;12.80;56.60;;;;;;4954108;28;20176;-83
2021/03/13 11:50:11;;;;;;;6.82;0.85;;;12.80;55.30;;;;;;4953895;28;20310;-84
2021/03/13 11:52:37;;;;;;;2.45;0.75;;;12.80;56.00;;;;;;4953808;29;20180;-84
2021/03/13 11:55:05;;;;;;;0.88;0.80;;;12.80;55.70;;;;;;4954173;29;20204;-83
2021/03/13 11:57:31;;;;;;;4.00;0.90;;;12.90;55.30;;;;;;4955173;29;20181;-82
2021/03/13 11:59:57;;;;;;;1.10;0.80;;;13.00;55.10;;;;;;4955750;28;20649;-83
2021/03/13 12:02:23;;;;;;;1.03;0.63;;;13.00;55.40;;;;;;4958823;28;20622;-81
2021/03/13 12:04:49;;;;;;;0.60;0.60;;;13.00;55.30;;;;;;4958094;29;20507;-82
2021/03/13 12:07:17;;;;;;;0.80;0.80;;;13.00;54.60;;;;;;4960329;29;20500;-81
2021/03/13 12:09:43;;;;;;;1.52;0.98;;;13.00;56.00;;;;;;4959304;29;20503;-83
2021/03/13 12:12:10;;;;;;;4.93;0.73;;;13.00;55.50;;;;;;4957990;28;20239;-83
2021/03/13 12:14:37;;;;;;;1.35;0.80;;;13.10;57.00;;;;;;4957581;29;20243;-82
2021/03/13 12:17:04;;;;;;;2.10;0.88;;;13.10;55.70;;;;;;4957435;28;20227;-83
2021/03/13 12:19:30;;;;;;;4.45;1.02;;;13.10;55.70;;;;;;4957672;29;20180;-83
2021/03/13 12:21:56;;;;;;;1.30;0.90;;;13.00;56.80;;;;;;4957888;28;20208;-82
2021/03/13 12:24:22;;;;;;;1.40;0.70;;;12.90;57.90;;;;;;4957729;29;20173;-83
2021/03/13 12:26:48;;;;;;;1.47;0.80;;;12.90;58.50;;;;;;4958262;29;20272;-83
2021/03/13 12:29:15;;;;;;;0.95;0.70;;;12.80;58.90;;;;;;4958604;29;20919;-83
2021/03/13 12:31:41;;;;;;;3.53;1.05;;;12.70;59.40;;;;;;4957568;28;20196;-82
2021/03/13 12:34:07;;;;;;;3.37;0.80;;;12.70;61.40;;;;;;4957667;29;20183;-82
2021/03/13 12:36:33;;;;;;;2.25;0.93;;;12.70;60.80;;;;;;4956805;29;20519;-84
2021/03/13 12:38:59;;;;;;;4.63;0.90;;;12.80;61.20;;;;;;4957344;29;20562;-83
2021/03/13 12:41:24;;;;;;;1.43;0.90;;;12.90;62.30;;;;;;4957252;28;20199;-82
2021/03/13 12:43:50;;;;;;;2.50;0.73;;;13.00;60.80;;;;;;4956900;29;20458;-83
2021/03/13 12:46:16;;;;;;;2.43;0.70;;;13.00;60.50;;;;;;4957003;29;20185;-83
2021/03/13 12:48:47;;;;;;;1.85;1.00;;;13.10;61.40;;;;;;4956939;29;20444;-83
2021/03/13 12:51:14;;;;;;;3.17;0.82;;;13.30;60.30;;;;;;4956393;28;20230;-83
2021/03/13 12:53:44;;;;;;;0.90;0.73;;;13.20;60.10;;;;;;4956577;29;20716;-83
2021/03/13 12:56:10;;;;;;;1.90;0.70;;;13.20;60.60;;;;;;4957134;28;20180;-82
2021/03/13 12:58:36;;;;;;;4.95;0.90;;;13.10;61.30;;;;;;4958445;29;20235;-82
2021/03/13 13:01:03;;;;;;;0.80;0.70;;;12.90;62.30;;;;;;4957385;28;20212;-83
2021/03/13 13:03:29;;;;;;;2.00;0.80;;;12.80;64.90;;;;;;4956550;29;20215;-84
2021/03/13 13:05:55;;;;;;;1.17;1.03;;;12.80;64.40;;;;;;4956360;29;20173;-84